Time;durP1;ratioP1;P1;durP2;ratioP2;P2;SDS_P1;SDS_P2;PMS_P1;PMS_P2;Temp;Humidity;BMP_temperature;BMP_pressure;BME280_temperature;BME280_humidity;BME280_pressure;Samples;Min_cycle;Max_cycle;Signal;HPM_P1;HPM_P2
2022/06/30 00:01:33;;;;;;;11.00;3.95;;;;;;;;;;6177163;23;20032;-66
2022/06/30 00:04:01;;;;;;;6.78;3.45;;;;;;;;;;6178083;23;20029;-56
2022/06/30 00:06:36;;;;;;;7.88;3.80;;;;;;;;;;6176494;23;20064;-56
2022/06/30 00:09:03;;;;;;;6.65;3.10;;;;;;;;;;6177379;23;20072;-56
2022/06/30 00:11:30;;;;;;;8.32;3.10;;;;;;;;;;6176833;23;20479;-57
2022/06/30 00:14:04;;;;;;;9.55;3.05;;;;;;;;;;6178379;23;20021;-57
2022/06/30 00:16:32;;;;;;;10.77;3.83;;;;;;;;;;6177139;23;20040;-56
2022/06/30 00:18:59;;;;;;;7.78;3.53;;;;;;;;;;6177110;23;20029;-57
2022/06/30 00:21:34;;;;;;;8.38;3.72;;;;;;;;;;6176313;23;20021;-62
2022/06/30 00:24:01;;;;;;;8.05;3.88;;;;;;;;;;6177865;23;20032;-61
2022/06/30 00:26:28;;;;;;;13.43;3.67;;;;;;;;;;6176510;23;20220;-61
2022/06/30 00:29:02;;;;;;;9.55;3.63;;;;;;;;;;6176940;23;20029;-62
2022/06/30 00:31:29;;;;;;;7.35;3.80;;;;;;;;;;6177142;23;20058;-62
2022/06/30 00:33:57;;;;;;;9.88;3.92;;;;;;;;;;6178101;23;20028;-62
2022/06/30 00:36:31;;;;;;;6.70;3.67;;;;;;;;;;6175960;23;20017;-62
2022/06/30 00:38:58;;;;;;;8.73;3.90;;;;;;;;;;6176902;23;20084;-46
2022/06/30 00:41:26;;;;;;;11.45;4.05;;;;;;;;;;6177551;23;20021;-49
2022/06/30 00:44:00;;;;;;;6.75;3.65;;;;;;;;;;6177294;23;20067;-66
2022/06/30 00:46:35;;;;;;;6.60;4.10;;;;;;;;;;6179176;22;20025;-66
2022/06/30 00:49:08;;;;;;;11.85;3.45;;;;;;;;;;6177022;23;20406;-66
2022/06/30 00:51:36;;;;;;;4.78;3.10;;;;;;;;;;6176842;23;20024;-67
2022/06/30 00:54:04;;;;;;;8.38;3.90;;;;;;;;;;6177845;23;20025;-67
2022/06/30 00:56:41;;;;;;;8.55;3.67;;;;;;;;;;6176670;23;20208;-65
2022/06/30 00:59:09;;;;;;;9.85;3.38;;;;;;;;;;6176332;23;20037;-49
2022/06/30 01:01:37;;;;;;;12.65;3.47;;;;;;;;;;6176628;23;20025;-47
2022/06/30 01:04:14;;;;;;;7.80;3.22;;;;;;;;;;6176438;23;20052;-48
2022/06/30 01:06:44;;;;;;;7.93;3.55;;;;;;;;;;6177209;23;20029;-45
2022/06/30 01:14:58;;;;;;;7.22;4.00;;;;;;;;;;6177571;23;20052;-44
2022/06/30 01:17:25;;;;;;;;;;;;;;;;;;6176407;23;20056;-46
2022/06/30 01:19:56;;;;;;;6.22;3.30;;;;;;;;;;6176419;23;19939;-49
2022/06/30 01:22:30;;;;;;;7.13;3.95;;;;;;;;;;6152178;23;20075;-61
2022/06/30 01:24:57;;;;;;;8.77;4.07;;;;;;;;;;6177421;23;20108;-61
2022/06/30 01:27:25;;;;;;;8.40;4.05;;;;;;;;;;6176053;23;20071;-61
2022/06/30 01:29:59;;;;;;;8.57;4.13;;;;;;;;;;6176392;23;20028;-61
2022/06/30 01:32:28;;;;;;;6.38;4.40;;;;;;;;;;6176637;23;20025;-61
2022/06/30 01:34:55;;;;;;;8.98;5.13;;;;;;;;;;6177193;23;20018;-61
2022/06/30 01:37:44;;;;;;;10.07;5.03;;;;;;;;;;6176471;23;20482;-58
2022/06/30 01:40:11;;;;;;;9.82;4.50;;;;;;;;;;6176896;23;20029;-60
2022/06/30 01:42:45;;;;;;;6.00;4.05;;;;;;;;;;6176354;23;20072;-60
2022/06/30 01:45:20;;;;;;;10.07;4.00;;;;;;;;;;6178790;22;20470;-60
2022/06/30 01:48:01;;;;;;;7.72;3.78;;;;;;;;;;6176296;23;20028;-59
2022/06/30 01:50:29;;;;;;;9.85;4.10;;;;;;;;;;6176402;23;20029;-60
2022/06/30 01:53:03;;;;;;;6.45;4.10;;;;;;;;;;6176614;23;20025;-59
2022/06/30 01:55:31;;;;;;;6.43;4.10;;;;;;;;;;6176090;23;20060;-50
2022/06/30 01:57:58;;;;;;;8.23;4.47;;;;;;;;;;6176338;23;20032;-57
2022/06/30 02:00:33;;;;;;;12.38;4.50;;;;;;;;;;6176838;23;20058;-57
2022/06/30 02:03:00;;;;;;;6.82;4.45;;;;;;;;;;6176857;23;20486;-56
2022/06/30 02:05:27;;;;;;;10.27;4.90;;;;;;;;;;6175698;23;20362;-56
2022/06/30 02:08:01;;;;;;;6.90;4.03;;;;;;;;;;6176770;23;20025;-54
2022/06/30 02:10:28;;;;;;;9.55;4.70;;;;;;;;;;6175840;23;20406;-57
2022/06/30 02:12:56;;;;;;;7.20;5.15;;;;;;;;;;6176087;23;20021;-56
2022/06/30 02:15:34;;;;;;;12.32;4.70;;;;;;;;;;6176426;23;20539;-62
2022/06/30 02:18:02;;;;;;;12.25;4.80;;;;;;;;;;6176374;23;20052;-60
2022/06/30 02:20:30;;;;;;;8.18;4.10;;;;;;;;;;6175180;23;20095;-59
2022/06/30 02:23:05;;;;;;;8.10;4.93;;;;;;;;;;6177031;23;20052;-60
2022/06/30 02:25:32;;;;;;;8.82;5.32;;;;;;;;;;6176398;23;20075;-60
2022/06/30 02:28:02;;;;;;;11.60;5.60;;;;;;;;;;6176734;23;20029;-59
2022/06/30 02:30:36;;;;;;;14.63;5.55;;;;;;;;;;6175695;23;20029;-59
2022/06/30 02:33:03;;;;;;;;;;;;;;;;;;6177112;23;20441;-58
2022/06/30 02:35:30;;;;;;;14.05;5.90;;;;;;;;;;6175921;23;20337;-58
2022/06/30 02:38:13;;;;;;;13.20;5.30;;;;;;;;;;6175875;23;20021;-56
2022/06/30 02:40:40;;;;;;;21.15;5.63;;;;;;;;;;6176271;23;20080;-54
2022/06/30 02:43:14;;;;;;;9.18;5.18;;;;;;;;;;6176084;23;20021;-56
2022/06/30 02:45:48;;;;;;;12.32;4.95;;;;;;;;;;6178079;22;20043;-57
2022/06/30 02:48:29;;;;;;;9.60;4.93;;;;;;;;;;6176183;23;20331;-57
2022/06/30 02:50:56;;;;;;;8.90;4.93;;;;;;;;;;6175281;23;20024;-56
2022/06/30 02:53:30;;;;;;;9.02;5.32;;;;;;;;;;6176460;23;20321;-46
2022/06/30 02:55:57;;;;;;;11.35;5.88;;;;;;;;;;6176644;23;20144;-58
2022/06/30 02:58:25;;;;;;;9.30;5.75;;;;;;;;;;6176467;23;20025;-59
2022/06/30 03:00:58;;;;;;;8.35;5.05;;;;;;;;;;6175973;23;20025;-59
2022/06/30 03:03:25;;;;;;;6.85;4.45;;;;;;;;;;6176515;23;20067;-58
2022/06/30 03:05:52;;;;;;;9.45;4.63;;;;;;;;;;6174162;23;20054;-58
2022/06/30 03:08:26;;;;;;;8.98;4.22;;;;;;;;;;6174956;23;20087;-58
2022/06/30 03:10:53;;;;;;;6.40;3.53;;;;;;;;;;6176780;23;20020;-51
2022/06/30 03:13:21;;;;;;;8.35;2.85;;;;;;;;;;6174791;23;20056;-67
2022/06/30 03:15:54;;;;;;;5.78;2.90;;;;;;;;;;6175460;23;20080;-62
2022/06/30 03:18:21;;;;;;;4.38;2.45;;;;;;;;;;6175183;23;20029;-62
2022/06/30 03:20:49;;;;;;;5.07;2.60;;;;;;;;;;6176283;23;20491;-62
2022/06/30 03:23:22;;;;;;;3.03;2.10;;;;;;;;;;6176557;23;20025;-62
2022/06/30 03:25:50;;;;;;;4.25;2.35;;;;;;;;;;6176060;23;20169;-62
2022/06/30 03:28:17;;;;;;;3.25;2.08;;;;;;;;;;6178000;23;20619;-62
2022/06/30 03:30:51;;;;;;;3.38;2.28;;;;;;;;;;6176824;23;20948;-46
2022/06/30 03:33:19;;;;;;;2.60;2.13;;;;;;;;;;6177345;23;20490;-58
2022/06/30 03:35:46;;;;;;;3.67;2.30;;;;;;;;;;6178250;23;20029;-59
2022/06/30 03:38:20;;;;;;;5.53;2.30;;;;;;;;;;6177590;23;20088;-59
2022/06/30 03:40:47;;;;;;;4.45;2.78;;;;;;;;;;6152248;23;20036;-59
2022/06/30 03:43:16;;;;;;;6.70;2.88;;;;;;;;;;6177389;23;20024;-59
2022/06/30 03:45:57;;;;;;;5.03;2.85;;;;;;;;;;6180311;22;20021;-59
2022/06/30 03:48:24;;;;;;;6.95;3.00;;;;;;;;;;6176882;23;20084;-59
2022/06/30 03:50:58;;;;;;;5.60;2.85;;;;;;;;;;6177403;23;20029;-55
2022/06/30 03:53:25;;;;;;;6.20;3.38;;;;;;;;;;6177365;23;20226;-59
2022/06/30 03:55:53;;;;;;;7.35;3.50;;;;;;;;;;6177176;23;20494;-59
2022/06/30 03:58:27;;;;;;;7.95;3.05;;;;;;;;;;6176100;23;20861;-59
2022/06/30 04:00:54;;;;;;;5.53;2.50;;;;;;;;;;6178478;23;20021;-59
2022/06/30 04:03:21;;;;;;;3.60;2.30;;;;;;;;;;6178763;23;20056;-59
2022/06/30 04:05:56;;;;;;;5.30;2.20;;;;;;;;;;6178255;23;20435;-60
2022/06/30 04:08:23;;;;;;;6.55;2.35;;;;;;;;;;6178513;23;20545;-60
2022/06/30 04:10:51;;;;;;;3.28;1.85;;;;;;;;;;6178796;23;20390;-48
2022/06/30 04:13:25;;;;;;;5.43;2.17;;;;;;;;;;6178795;23;20021;-59
2022/06/30 04:15:55;;;;;;;5.45;2.30;;;;;;;;;;6177912;23;20036;-59
2022/06/30 04:18:22;;;;;;;3.30;1.90;;;;;;;;;;6176888;23;20031;-59
2022/06/30 04:20:56;;;;;;;5.03;1.95;;;;;;;;;;6176735;23;20056;-59
2022/06/30 04:23:24;;;;;;;3.58;1.92;;;;;;;;;;6177498;23;20096;-59
2022/06/30 04:25:51;;;;;;;9.38;2.20;;;;;;;;;;6174110;23;20543;-59
2022/06/30 04:28:25;;;;;;;4.65;1.98;;;;;;;;;;6176469;23;20068;-46
2022/06/30 04:33:55;;;;;;;8.02;2.08;;;;;;;;;;6100034;23;20025;-46
2022/06/30 04:36:23;;;;;;;4.70;2.03;;;;;;;;;;6174598;23;20025;-50
2022/06/30 04:38:50;;;;;;;3.80;2.15;;;;;;;;;;6175610;23;20368;-50
2022/06/30 04:41:24;;;;;;;5.28;2.55;;;;;;;;;;6174411;23;20083;-51
2022/06/30 04:43:56;;;;;;;4.53;2.45;;;;;;;;;;6174807;23;20029;-47
2022/06/30 04:46:23;;;;;;;2.40;2.20;;;;;;;;;;6176905;22;20059;-60
2022/06/30 04:49:04;;;;;;;4.45;2.30;;;;;;;;;;6173245;23;20021;-58
2022/06/30 04:51:31;;;;;;;4.38;2.47;;;;;;;;;;6175901;23;20382;-57
2022/06/30 04:54:05;;;;;;;5.90;2.30;;;;;;;;;;6177648;23;20501;-58
2022/06/30 04:56:39;;;;;;;3.05;1.92;;;;;;;;;;6177492;23;20021;-58
2022/06/30 04:59:13;;;;;;;3.95;2.25;;;;;;;;;;6176084;23;20025;-56
2022/06/30 05:01:40;;;;;;;4.40;2.60;;;;;;;;;;6175722;23;20028;-57
2022/06/30 05:04:08;;;;;;;5.53;2.30;;;;;;;;;;6177933;23;20372;-57
2022/06/30 05:06:42;;;;;;;4.63;2.75;;;;;;;;;;6176955;23;20025;-67
2022/06/30 05:09:10;;;;;;;4.25;2.60;;;;;;;;;;6177531;23;20048;-52
2022/06/30 05:11:37;;;;;;;3.63;2.20;;;;;;;;;;6176123;23;20471;-50
2022/06/30 05:14:11;;;;;;;5.10;2.63;;;;;;;;;;6176639;23;20056;-48
2022/06/30 05:16:38;;;;;;;8.02;2.60;;;;;;;;;;6174330;23;20060;-49
2022/06/30 05:19:06;;;;;;;6.25;2.10;;;;;;;;;;6149001;23;20076;-46
2022/06/30 05:21:39;;;;;;;3.28;2.67;;;;;;;;;;6176000;23;20021;-49
2022/06/30 05:26:59;;;;;;;5.20;2.83;;;;;;;;;;6177323;23;20075;-65
2022/06/30 05:29:26;;;;;;;7.65;2.95;;;;;;;;;;6176529;23;20032;-59
2022/06/30 05:31:53;;;;;;;5.00;2.70;;;;;;;;;;6176768;23;20052;-57
2022/06/30 05:34:27;;;;;;;6.00;3.13;;;;;;;;;;6176585;23;20087;-57
2022/06/30 05:36:54;;;;;;;7.45;3.45;;;;;;;;;;6176782;23;20463;-57
2022/06/30 05:39:22;;;;;;;8.90;3.42;;;;;;;;;;6177532;23;20021;-57
2022/06/30 05:41:56;;;;;;;8.02;3.55;;;;;;;;;;6176804;23;20025;-57
2022/06/30 05:44:24;;;;;;;7.07;2.95;;;;;;;;;;6176586;23;20028;-59
2022/06/30 05:46:51;;;;;;;10.73;3.63;;;;;;;;;;6178113;22;20087;-58
2022/06/30 05:49:25;;;;;;;5.93;3.47;;;;;;;;;;6176934;23;20021;-59
2022/06/30 05:51:53;;;;;;;7.47;3.63;;;;;;;;;;6176072;23;20520;-59
2022/06/30 05:54:20;;;;;;;;;;;;;;;;;;6176984;23;20025;-60
2022/06/30 05:56:54;;;;;;;7.78;4.00;;;;;;;;;;6177429;23;19920;-60
2022/06/30 05:59:22;;;;;;;11.43;4.80;;;;;;;;;;6175809;23;20028;-60
2022/06/30 06:01:49;;;;;;;9.57;4.50;;;;;;;;;;6175934;23;20071;-59
2022/06/30 06:04:23;;;;;;;8.82;4.05;;;;;;;;;;6174275;23;20134;-63
2022/06/30 06:06:51;;;;;;;10.32;4.15;;;;;;;;;;6175331;23;20035;-58
2022/06/30 06:09:18;;;;;;;8.02;3.95;;;;;;;;;;6176495;23;20187;-58
2022/06/30 06:11:53;;;;;;;8.20;3.92;;;;;;;;;;6176048;23;20043;-59
2022/06/30 06:14:21;;;;;;;6.22;3.83;;;;;;;;;;6175278;23;20032;-57
2022/06/30 06:16:49;;;;;;;8.98;4.28;;;;;;;;;;6175520;23;20033;-57
2022/06/30 06:19:23;;;;;;;7.95;3.75;;;;;;;;;;6175569;23;20028;-58
2022/06/30 06:21:51;;;;;;;9.07;3.85;;;;;;;;;;6174862;23;20052;-66
2022/06/30 06:24:18;;;;;;;11.98;3.67;;;;;;;;;;6175779;23;20033;-50
2022/06/30 06:26:52;;;;;;;6.50;3.40;;;;;;;;;;6175901;23;20028;-58
2022/06/30 06:29:21;;;;;;;6.97;3.17;;;;;;;;;;6176525;23;20025;-58
2022/06/30 06:31:48;;;;;;;8.07;2.70;;;;;;;;;;6175118;23;20037;-57
2022/06/30 06:34:22;;;;;;;6.43;2.92;;;;;;;;;;6175828;23;20025;-57
2022/06/30 06:36:50;;;;;;;4.10;2.33;;;;;;;;;;6174256;23;20021;-58
2022/06/30 06:39:17;;;;;;;8.23;2.50;;;;;;;;;;6175788;23;20075;-57
2022/06/30 06:41:51;;;;;;;6.45;2.70;;;;;;;;;;6175521;23;20081;-60
2022/06/30 06:44:19;;;;;;;;;;;;;;;;;;6170542;23;20033;-57
2022/06/30 06:47:08;;;;;;;3.65;2.10;;;;;;;;;;6174428;22;20690;-58
2022/06/30 06:49:43;;;;;;;4.97;2.05;;;;;;;;;;6174122;23;20124;-58
2022/06/30 06:52:11;;;;;;;6.50;2.05;;;;;;;;;;6170336;23;20080;-58
2022/06/30 06:54:38;;;;;;;;;;;;;;;;;;6175789;23;20025;-58
2022/06/30 06:57:19;;;;;;;5.45;2.00;;;;;;;;;;6175151;23;19951;-58
2022/06/30 06:59:46;;;;;;;6.07;2.15;;;;;;;;;;6176226;23;20087;-50
2022/06/30 07:02:20;;;;;;;6.57;2.20;;;;;;;;;;6152588;23;20028;-64
2022/06/30 07:04:47;;;;;;;4.85;1.90;;;;;;;;;;6177417;23;20025;-65
2022/06/30 07:07:15;;;;;;;4.25;1.90;;;;;;;;;;6177186;23;20540;-65
2022/06/30 07:09:49;;;;;;;7.75;2.15;;;;;;;;;;6177746;23;20059;-65
2022/06/30 07:12:17;;;;;;;3.47;2.08;;;;;;;;;;6175930;23;20056;-65
2022/06/30 07:14:44;;;;;;;3.05;1.73;;;;;;;;;;6177302;23;20025;-65
2022/06/30 07:17:20;;;;;;;4.03;1.95;;;;;;;;;;6176506;23;20055;-64
2022/06/30 07:19:47;;;;;;;3.97;1.60;;;;;;;;;;6177736;23;20029;-59
2022/06/30 07:22:16;;;;;;;4.22;1.75;;;;;;;;;;6176561;23;20025;-59
2022/06/30 07:24:51;;;;;;;3.70;1.70;;;;;;;;;;6177420;23;20021;-58
2022/06/30 07:27:18;;;;;;;6.22;1.90;;;;;;;;;;6176974;23;20049;-58
2022/06/30 07:29:46;;;;;;;3.38;2.13;;;;;;;;;;6177838;23;20029;-59
2022/06/30 07:32:21;;;;;;;3.55;1.90;;;;;;;;;;6176431;23;20028;-58
2022/06/30 07:34:48;;;;;;;2.40;1.70;;;;;;;;;;6176806;23;20392;-59
2022/06/30 07:37:15;;;;;;;3.13;1.67;;;;;;;;;;6176451;23;20075;-59
2022/06/30 07:39:50;;;;;;;4.13;1.73;;;;;;;;;;6178336;23;20032;-59
2022/06/30 07:42:17;;;;;;;4.18;1.65;;;;;;;;;;6176391;23;20032;-58
2022/06/30 07:44:44;;;;;;;4.57;1.75;;;;;;;;;;6178148;23;20063;-58
2022/06/30 07:47:25;;;;;;;6.25;2.33;;;;;;;;;;6179008;22;20025;-58
2022/06/30 07:49:52;;;;;;;2.97;1.58;;;;;;;;;;6177680;23;20085;-58
2022/06/30 07:52:27;;;;;;;3.58;1.60;;;;;;;;;;6176418;23;20083;-59
2022/06/30 07:54:54;;;;;;;3.08;1.40;;;;;;;;;;6176650;23;20071;-58
2022/06/30 07:57:21;;;;;;;4.38;1.40;;;;;;;;;;6177760;23;20087;-59
2022/06/30 07:59:59;;;;;;;;;;;;;;;;;;6178212;23;20060;-59
2022/06/30 08:02:26;;;;;;;3.97;1.33;;;;;;;;;;6175041;23;19927;-59
2022/06/30 08:04:53;;;;;;;3.65;1.50;;;;;;;;;;6176907;23;20024;-60
2022/06/30 08:07:27;;;;;;;3.75;1.38;;;;;;;;;;6177093;23;20067;-59
2022/06/30 08:09:54;;;;;;;2.60;1.40;;;;;;;;;;6178161;23;20045;-60
2022/06/30 08:12:22;;;;;;;3.03;1.40;;;;;;;;;;6175673;23;20037;-59
2022/06/30 08:14:55;;;;;;;5.03;1.48;;;;;;;;;;6176790;23;20021;-60
2022/06/30 08:17:23;;;;;;;4.28;1.55;;;;;;;;;;6176688;23;20029;-65
2022/06/30 08:19:50;;;;;;;1.75;1.23;;;;;;;;;;6176725;23;20079;-50
2022/06/30 08:22:24;;;;;;;3.08;1.15;;;;;;;;;;6177172;23;20054;-48
2022/06/30 08:24:52;;;;;;;;;;;;;;;;;;6175263;23;20235;-52
2022/06/30 08:27:19;;;;;;;1.23;1.02;;;;;;;;;;6174810;23;19920;-49
2022/06/30 08:29:53;;;;;;;3.13;1.27;;;;;;;;;;6177225;23;20017;-51
2022/06/30 08:32:22;;;;;;;2.30;1.20;;;;;;;;;;6173156;23;20678;-50
2022/06/30 08:34:50;;;;;;;4.68;1.60;;;;;;;;;;6174749;23;20049;-55
2022/06/30 08:37:23;;;;;;;3.88;1.73;;;;;;;;;;6173467;23;20047;-62
2022/06/30 08:42:44;;;;;;;6.40;1.98;;;;;;;;;;6176267;23;20561;-66
2022/06/30 08:45:17;;;;;;;3.63;1.23;;;;;;;;;;6176738;23;20532;-66
2022/06/30 08:47:58;;;;;;;1.55;1.10;;;;;;;;;;6173474;23;20021;-66
2022/06/30 08:50:25;;;;;;;4.63;1.60;;;;;;;;;;6176739;23;20021;-65
2022/06/30 08:53:03;;;;;;;3.22;1.30;;;;;;;;;;6176349;23;20470;-65
2022/06/30 08:55:32;;;;;;;2.40;1.40;;;;;;;;;;6177329;23;20063;-54
2022/06/30 08:58:07;;;;;;;2.25;1.13;;;;;;;;;;6177002;23;20021;-66
2022/06/30 09:00:36;;;;;;;7.80;1.35;;;;;;;;;;6176781;23;20025;-66
2022/06/30 09:03:04;;;;;;;2.50;1.50;;;;;;;;;;6176707;23;20103;-66
2022/06/30 09:05:39;;;;;;;2.63;1.35;;;;;;;;;;6177265;23;20087;-66
2022/06/30 09:08:06;;;;;;;4.47;1.48;;;;;;;;;;6176063;23;20020;-66
2022/06/30 09:10:55;;;;;;;2.55;1.50;;;;;;;;;;6175292;23;20025;-66
2022/06/30 09:13:39;;;;;;;2.58;1.08;;;;;;;;;;6176776;23;20024;-57
2022/06/30 09:16:06;;;;;;;4.15;1.35;;;;;;;;;;6178066;23;20021;-60
2022/06/30 09:18:41;;;;;;;1.50;1.10;;;;;;;;;;6175955;23;20430;-65
2022/06/30 09:21:16;;;;;;;1.65;1.20;;;;;;;;;;6174798;23;20028;-66
2022/06/30 09:23:50;;;;;;;2.75;1.20;;;;;;;;;;6174657;23;20024;-66
2022/06/30 09:26:21;;;;;;;1.83;1.27;;;;;;;;;;6175876;23;20029;-66
2022/06/30 09:28:55;;;;;;;2.42;1.25;;;;;;;;;;6176708;23;20083;-66
2022/06/30 09:31:49;;;;;;;4.03;1.20;;;;;;;;;;6177018;23;20031;-66
2022/06/30 09:34:18;;;;;;;;;;;;;;;;;;6176625;23;20060;-51
2022/06/30 09:36:52;;;;;;;2.75;1.10;;;;;;;;;;6174351;23;19924;-61
2022/06/30 09:39:21;;;;;;;1.35;1.02;;;;;;;;;;6150649;23;20056;-60
2022/06/30 09:41:49;;;;;;;3.10;1.30;;;;;;;;;;6176047;23;20021;-61
2022/06/30 09:44:34;;;;;;;2.03;1.13;;;;;;;;;;6174576;23;20028;-61
2022/06/30 09:47:12;;;;;;;2.05;0.98;;;;;;;;;;6178971;22;20021;-61
2022/06/30 09:49:54;;;;;;;3.10;1.10;;;;;;;;;;6175942;23;20083;-61
2022/06/30 09:52:23;;;;;;;2.58;1.30;;;;;;;;;;6175957;23;20068;-59
2022/06/30 09:55:04;;;;;;;5.82;1.23;;;;;;;;;;6176815;23;20467;-60
2022/06/30 09:57:45;;;;;;;2.33;1.02;;;;;;;;;;6176749;23;20080;-60
2022/06/30 10:00:18;;;;;;;4.35;1.20;;;;;;;;;;6175501;23;20025;-60
2022/06/30 10:02:47;;;;;;;2.55;1.50;;;;;;;;;;6175509;23;20540;-60
2022/06/30 10:05:18;;;;;;;3.10;1.13;;;;;;;;;;6177591;23;20025;-60
2022/06/30 10:07:53;;;;;;;2.35;1.50;;;;;;;;;;6176410;23;20067;-60
2022/06/30 10:10:20;;;;;;;;;;;;;;;;;;6149540;23;20021;-61
2022/06/30 10:12:47;;;;;;;10.15;1.20;;;;;;;;;;6175717;23;19939;-66
2022/06/30 10:15:22;;;;;;;6.25;1.40;;;;;;;;;;6177389;23;20058;-61
2022/06/30 10:17:53;;;;;;;3.28;1.40;;;;;;;;;;6172789;23;20091;-63
2022/06/30 10:20:31;;;;;;;2.92;1.15;;;;;;;;;;6172664;23;20025;-62
2022/06/30 10:22:58;;;;;;;1.60;1.08;;;;;;;;;;6176589;23;20025;-62
2022/06/30 10:25:33;;;;;;;2.47;1.10;;;;;;;;;;6175552;23;20438;-62
2022/06/30 10:28:07;;;;;;;3.53;1.50;;;;;;;;;;6174599;23;20344;-62
2022/06/30 10:30:56;;;;;;;2.75;1.38;;;;;;;;;;6175638;23;20359;-66
2022/06/30 10:33:38;;;;;;;3.92;1.27;;;;;;;;;;6176291;23;20067;-60
2022/06/30 10:36:11;;;;;;;2.10;1.17;;;;;;;;;;6176536;23;20525;-60
2022/06/30 10:38:58;;;;;;;3.20;1.63;;;;;;;;;;6175000;23;20025;-60
2022/06/30 10:41:25;;;;;;;5.35;1.30;;;;;;;;;;6150377;23;20530;-60
2022/06/30 10:44:05;;;;;;;3.03;1.40;;;;;;;;;;6175914;23;20025;-60
2022/06/30 10:47:09;;;;;;;2.63;1.30;;;;;;;;;;6151164;23;20025;-60
2022/06/30 10:49:52;;;;;;;1.02;0.90;;;;;;;;;;6173188;23;20029;-62
2022/06/30 10:52:23;;;;;;;2.80;1.10;;;;;;;;;;6175743;23;20029;-60
2022/06/30 10:55:02;;;;;;;3.05;1.30;;;;;;;;;;6176727;23;20033;-59
2022/06/30 10:57:49;;;;;;;3.15;1.48;;;;;;;;;;6174901;23;20075;-59
2022/06/30 11:00:43;;;;;;;12.85;1.88;;;;;;;;;;6173682;23;20580;-59
2022/06/30 11:03:37;;;;;;;2.35;1.35;;;;;;;;;;6176194;23;20545;-59
2022/06/30 11:06:13;;;;;;;2.20;1.25;;;;;;;;;;6175577;23;20029;-60
2022/06/30 11:08:47;;;;;;;3.25;1.23;;;;;;;;;;6173712;23;20470;-59
2022/06/30 11:11:21;;;;;;;5.10;1.70;;;;;;;;;;6175097;23;20424;-53
2022/06/30 11:13:49;;;;;;;1.83;1.10;;;;;;;;;;6176492;23;20458;-53
2022/06/30 11:16:17;;;;;;;3.15;1.17;;;;;;;;;;6176337;23;20475;-52
2022/06/30 11:18:52;;;;;;;2.78;1.20;;;;;;;;;;6175773;23;20059;-53
2022/06/30 11:21:19;;;;;;;;;;;;;;;;;;6174431;23;20035;-53
2022/06/30 11:23:47;;;;;;;1.92;1.10;;;;;;;;;;6175059;23;19916;-51
2022/06/30 11:29:12;;;;;;;1.75;1.25;;;;;;;;;;6174616;23;20399;-53
2022/06/30 11:31:46;;;;;;;2.60;1.48;;;;;;;;;;6175287;23;20025;-60
2022/06/30 11:34:20;;;;;;;3.63;1.30;;;;;;;;;;6174155;23;20021;-60
2022/06/30 11:36:53;;;;;;;5.07;1.33;;;;;;;;;;6175538;23;20025;-60
2022/06/30 11:39:21;;;;;;;;;;;;;;;;;;6176545;23;20056;-60
2022/06/30 11:41:55;;;;;;;3.10;1.25;;;;;;;;;;6175653;23;19947;-59
2022/06/30 11:44:29;;;;;;;2.55;1.00;;;;;;;;;;6175280;23;20056;-59
2022/06/30 11:47:06;;;;;;;2.00;0.75;;;;;;;;;;6177962;22;20025;-59
2022/06/30 11:49:42;;;;;;;2.75;1.23;;;;;;;;;;6177075;23;20037;-61
2022/06/30 11:52:20;;;;;;;2.28;1.20;;;;;;;;;;6176369;23;20402;-61
2022/06/30 11:54:54;;;;;;;4.60;1.17;;;;;;;;;;6178594;23;20364;-62
2022/06/30 11:57:23;;;;;;;3.25;1.25;;;;;;;;;;6177851;23;20021;-61
2022/06/30 11:59:57;;;;;;;2.28;1.20;;;;;;;;;;6177761;23;20454;-61
2022/06/30 12:02:35;;;;;;;2.92;1.42;;;;;;;;;;6177608;23;20084;-61
2022/06/30 12:05:05;;;;;;;2.10;1.20;;;;;;;;;;6178020;23;20052;-61
2022/06/30 12:07:39;;;;;;;2.83;1.42;;;;;;;;;;6175452;23;20063;-61
2022/06/30 12:10:07;;;;;;;4.38;1.40;;;;;;;;;;6177664;23;20025;-59
2022/06/30 12:12:36;;;;;;;2.13;1.23;;;;;;;;;;6177200;23;20029;-60
2022/06/30 12:15:14;;;;;;;2.30;1.20;;;;;;;;;;6177981;23;20024;-59
2022/06/30 12:17:45;;;;;;;3.10;1.48;;;;;;;;;;6177909;23;20025;-59
2022/06/30 12:20:20;;;;;;;1.67;1.02;;;;;;;;;;6177261;23;20471;-59
2022/06/30 12:22:48;;;;;;;4.70;1.52;;;;;;;;;;6176942;23;20056;-59
2022/06/30 12:25:16;;;;;;;3.28;1.60;;;;;;;;;;6178007;23;20025;-51
2022/06/30 12:27:51;;;;;;;4.35;1.75;;;;;;;;;;6177742;23;20088;-51
2022/06/30 12:30:21;;;;;;;1.88;1.10;;;;;;;;;;6177791;23;20650;-51
2022/06/30 12:32:58;;;;;;;5.38;1.65;;;;;;;;;;6176648;23;20140;-54
2022/06/30 12:35:34;;;;;;;3.15;1.48;;;;;;;;;;6175893;23;20494;-49
2022/06/30 12:38:20;;;;;;;1.73;1.20;;;;;;;;;;6176710;23;20021;-54
2022/06/30 12:40:55;;;;;;;2.65;1.30;;;;;;;;;;6177144;23;20053;-53
2022/06/30 12:43:22;;;;;;;;;;;;;;;;;;6178201;23;20144;-61
2022/06/30 12:45:53;;;;;;;3.88;1.42;;;;;;;;;;6176923;23;19939;-60
2022/06/30 12:48:46;;;;;;;2.35;1.40;;;;;;;;;;6174416;23;20021;-52
2022/06/30 12:51:14;;;;;;;2.97;1.40;;;;;;;;;;6177577;23;20021;-54
2022/06/30 12:53:58;;;;;;;1.92;1.40;;;;;;;;;;6176898;23;20048;-52
2022/06/30 12:56:26;;;;;;;2.20;1.50;;;;;;;;;;6177714;23;20665;-55
2022/06/30 12:59:00;;;;;;;4.15;1.50;;;;;;;;;;6177138;23;20036;-50
2022/06/30 13:01:37;;;;;;;3.15;1.30;;;;;;;;;;6176130;23;20077;-60
2022/06/30 13:04:21;;;;;;;1.88;1.25;;;;;;;;;;6176763;23;20020;-59
2022/06/30 13:06:50;;;;;;;2.95;1.40;;;;;;;;;;6176823;23;20018;-63
2022/06/30 13:09:26;;;;;;;2.83;1.27;;;;;;;;;;6173125;23;20028;-63
2022/06/30 13:11:57;;;;;;;3.78;1.20;;;;;;;;;;6173821;23;20410;-63
2022/06/30 13:14:32;;;;;;;5.78;1.45;;;;;;;;;;6173389;23;20029;-63
2022/06/30 13:17:00;;;;;;;2.33;1.52;;;;;;;;;;6176501;23;20075;-62
2022/06/30 13:19:29;;;;;;;4.32;1.70;;;;;;;;;;6176364;23;20025;-63
2022/06/30 13:22:03;;;;;;;2.42;1.52;;;;;;;;;;6176391;23;20052;-64
2022/06/30 13:24:32;;;;;;;4.10;1.52;;;;;;;;;;6173184;23;20024;-54
2022/06/30 13:27:03;;;;;;;1.85;1.20;;;;;;;;;;6174983;23;20406;-53
2022/06/30 13:29:36;;;;;;;2.80;1.25;;;;;;;;;;6174687;23;20576;-53
2022/06/30 13:32:04;;;;;;;2.40;1.40;;;;;;;;;;6177457;23;20032;-52
2022/06/30 13:34:34;;;;;;;5.10;1.40;;;;;;;;;;6175813;23;20580;-53
2022/06/30 13:37:09;;;;;;;3.55;1.45;;;;;;;;;;6176880;23;20092;-54
2022/06/30 13:39:36;;;;;;;7.50;1.30;;;;;;;;;;6176118;23;20029;-59
2022/06/30 13:42:04;;;;;;;4.55;1.50;;;;;;;;;;6174389;23;20391;-54
2022/06/30 13:44:39;;;;;;;2.50;1.50;;;;;;;;;;6174079;23;20032;-64
2022/06/30 13:47:18;;;;;;;4.03;1.50;;;;;;;;;;6177246;22;20481;-64
2022/06/30 13:49:53;;;;;;;3.92;1.67;;;;;;;;;;6149148;23;20052;-63
2022/06/30 13:52:20;;;;;;;3.05;1.55;;;;;;;;;;6174050;23;20076;-63
2022/06/30 13:54:47;;;;;;;3.65;1.80;;;;;;;;;;6175593;23;20029;-64
2022/06/30 13:57:21;;;;;;;2.30;1.20;;;;;;;;;;6175222;23;20490;-63
2022/06/30 13:59:49;;;;;;;3.45;1.88;;;;;;;;;;6176997;23;20017;-59
2022/06/30 14:02:16;;;;;;;;;;;;;;;;;;6174777;23;20426;-60
2022/06/30 14:04:50;;;;;;;3.55;1.65;;;;;;;;;;6176188;23;19916;-58
2022/06/30 14:07:17;;;;;;;2.67;1.50;;;;;;;;;;6177188;23;20075;-59
2022/06/30 14:09:44;;;;;;;2.17;1.40;;;;;;;;;;6173078;23;20025;-59
2022/06/30 14:12:19;;;;;;;3.47;1.73;;;;;;;;;;6176550;23;20402;-59
2022/06/30 14:14:46;;;;;;;4.68;1.58;;;;;;;;;;6175848;23;20636;-59
2022/06/30 14:17:13;;;;;;;3.58;1.58;;;;;;;;;;6176744;23;20024;-59
2022/06/30 14:19:48;;;;;;;3.28;1.70;;;;;;;;;;6176017;23;20045;-59
2022/06/30 14:22:16;;;;;;;4.30;1.33;;;;;;;;;;6176488;23;20029;-61
2022/06/30 14:24:43;;;;;;;3.00;1.48;;;;;;;;;;6176393;23;20024;-61
2022/06/30 14:27:20;;;;;;;5.18;1.67;;;;;;;;;;6176578;23;20028;-61
2022/06/30 14:29:47;;;;;;;5.72;1.50;;;;;;;;;;6175541;23;20032;-61
2022/06/30 14:32:15;;;;;;;1.20;1.10;;;;;;;;;;6172166;23;20087;-61
2022/06/30 14:34:49;;;;;;;2.78;1.50;;;;;;;;;;6176992;23;20075;-61
2022/06/30 14:37:16;;;;;;;2.00;1.33;;;;;;;;;;6173555;23;20032;-50
2022/06/30 14:39:50;;;;;;;4.43;1.50;;;;;;;;;;6176013;23;20328;-50
2022/06/30 14:42:43;;;;;;;2.72;1.60;;;;;;;;;;6176138;23;20021;-61
2022/06/30 14:45:13;;;;;;;3.10;1.55;;;;;;;;;;6176188;23;20076;-61
2022/06/30 14:47:54;;;;;;;3.80;1.60;;;;;;;;;;6177680;22;20025;-61
2022/06/30 14:50:23;;;;;;;2.63;1.55;;;;;;;;;;6176019;23;20028;-61
2022/06/30 14:52:56;;;;;;;3.53;1.73;;;;;;;;;;6175602;23;20027;-61
2022/06/30 14:55:24;;;;;;;3.13;1.80;;;;;;;;;;6175950;23;20362;-61
2022/06/30 14:57:51;;;;;;;3.85;1.80;;;;;;;;;;6176319;23;20021;-51
2022/06/30 15:00:26;;;;;;;4.35;1.80;;;;;;;;;;6173889;23;20021;-54
2022/06/30 15:02:54;;;;;;;6.97;1.60;;;;;;;;;;6174819;23;20021;-51
2022/06/30 15:05:27;;;;;;;3.70;1.80;;;;;;;;;;6175518;23;20099;-51
2022/06/30 15:08:01;;;;;;;3.28;1.80;;;;;;;;;;6172876;23;20083;-51
2022/06/30 15:10:28;;;;;;;3.38;1.90;;;;;;;;;;6173793;23;20505;-50
2022/06/30 15:12:55;;;;;;;3.58;1.60;;;;;;;;;;6173705;23;20024;-48
2022/06/30 15:15:30;;;;;;;2.90;1.63;;;;;;;;;;6174266;23;20072;-63
2022/06/30 15:17:57;;;;;;;3.72;1.95;;;;;;;;;;6173697;23;20025;-63
2022/06/30 15:20:24;;;;;;;;;;;;;;;;;;6173424;23;20025;-60
2022/06/30 15:25:44;;;;;;;3.05;1.70;;;;;;;;;;6178443;23;20060;-59
2022/06/30 15:28:19;;;;;;;3.30;1.73;;;;;;;;;;6177769;23;20079;-60
2022/06/30 15:30:46;;;;;;;2.55;1.80;;;;;;;;;;6177537;23;20057;-60
2022/06/30 15:33:13;;;;;;;;;;;;;;;;;;6179310;23;20021;-60